Time;durP1;ratioP1;P1;durP2;ratioP2;P2;SDS_P1;SDS_P2;PMS_P1;PMS_P2;Temp;Humidity;BMP_temperature;BMP_pressure;BME280_temperature;BME280_humidity;BME280_pressure;Samples;Min_cycle;Max_cycle;Signal;HPM_P1;HPM_P2
2022/01/07 00:01:09;;;;;;;12.50;5.80;;;;;;;3.13;75.67;98846.72;25133;1316;3026834;-61
2022/01/07 00:03:38;;;;;;;10.90;5.70;;;;;;;3.50;73.21;98851.98;25066;1316;3070612;-63
2022/01/07 00:06:08;;;;;;;9.10;5.30;;;;;;;3.63;72.67;98867.05;25084;1316;3026884;-61
2022/01/07 00:08:37;;;;;;;6.70;4.80;;;;;;;3.36;72.78;98866.39;25123;1316;3026517;-62
2022/01/07 00:11:06;;;;;;;7.40;5.40;;;;;;;3.15;73.84;98865.02;25075;1316;3069158;-64
2022/01/07 00:13:36;;;;;;;8.50;4.90;;;;;;;2.99;73.88;98868.05;25078;1316;3026059;-63
2022/01/07 00:16:05;;;;;;;9.30;5.00;;;;;;;2.83;74.50;98875.73;25106;1315;3028262;-63
2022/01/07 00:18:40;;;;;;;10.30;5.60;;;;;;;2.58;75.44;98875.65;25100;1316;3068740;-63
2022/01/07 00:21:09;;;;;;;7.70;5.00;;;;;;;2.39;76.71;98868.91;25101;1315;3027745;-62
2022/01/07 00:23:38;;;;;;;6.90;4.40;;;;;;;3.08;75.57;98859.38;25088;1316;3029698;-64
2022/01/07 00:26:07;;;;;;;8.30;5.00;;;;;;;3.56;73.47;98859.18;25103;1315;3069653;-63
2022/01/07 00:28:36;;;;;;;8.10;5.40;;;;;;;3.58;72.92;98862.90;25077;1316;3027039;-64
2022/01/07 00:31:05;;;;;;;8.80;5.30;;;;;;;3.33;73.45;98861.69;25091;1316;3052406;-63
2022/01/07 00:33:34;;;;;;;8.00;5.20;;;;;;;3.14;73.85;98864.49;25082;1316;3026775;-61
2022/01/07 00:36:03;;;;;;;8.50;5.00;;;;;;;2.92;74.39;98867.27;25132;1316;3052874;-62
2022/01/07 00:38:33;;;;;;;7.60;5.20;;;;;;;2.68;74.73;98861.27;25103;1315;3026357;-63
2022/01/07 00:41:03;;;;;;;9.70;5.80;;;;;;;2.57;75.25;98863.05;25046;1315;3025932;-62
2022/01/07 00:43:32;;;;;;;8.80;5.40;;;;;;;2.44;75.96;98868.55;25097;1316;3026682;-66
2022/01/07 00:46:01;;;;;;;11.70;5.20;;;;;;;2.38;76.36;98867.91;25100;1315;3026879;-64
2022/01/07 00:48:30;;;;;;;7.10;3.90;;;;;;;2.96;75.30;98879.73;25129;1316;3070778;-62
2022/01/07 00:50:59;;;;;;;7.70;4.30;;;;;;;3.43;73.57;98889.16;25166;1315;3026792;-61
2022/01/07 00:53:27;;;;;;;9.60;4.70;;;;;;;3.47;72.79;98892.44;25108;1316;3049973;-62
2022/01/07 00:55:56;;;;;;;6.80;4.50;;;;;;;3.19;73.34;98890.08;25059;1315;3027263;-66
2022/01/07 00:58:25;;;;;;;9.10;4.60;;;;;;;2.88;74.35;98892.70;25060;1316;3054896;-61
2022/01/07 01:01:00;;;;;;;8.60;4.80;;;;;;;2.75;74.60;98895.77;25105;1316;3053222;-62
2022/01/07 01:03:29;;;;;;;11.30;6.00;;;;;;;2.43;75.91;98906.10;25092;1315;3026678;-63
2022/01/07 01:05:58;;;;;;;10.00;5.30;;;;;;;2.20;76.65;98909.33;25078;1316;3054464;-65
2022/01/07 01:08:28;;;;;;;4.80;2.60;;;;;;;2.11;77.33;98900.33;25084;1316;3026318;-64
2022/01/07 01:10:56;;;;;;;7.40;4.50;;;;;;;2.71;76.03;98892.95;25120;1315;3048139;-63
2022/01/07 01:13:26;;;;;;;12.50;6.00;;;;;;;3.15;74.22;98893.90;25107;1315;3026161;-64
2022/01/07 01:15:55;;;;;;;14.50;7.00;;;;;;;3.10;74.05;98895.84;25111;1316;3058233;-63
2022/01/07 01:18:24;;;;;;;17.10;7.40;;;;;;;2.79;74.64;98894.59;25087;1316;3027024;-62
2022/01/07 01:20:53;;;;;;;18.40;8.10;;;;;;;2.65;75.05;98895.28;25112;1316;3051249;-62
2022/01/07 01:23:22;;;;;;;16.70;8.30;;;;;;;2.57;75.50;98888.30;25066;1315;3029351;-62
2022/01/07 01:25:52;;;;;;;20.80;9.80;;;;;;;2.50;75.57;98884.91;25073;1316;3026237;-63
2022/01/07 01:28:20;;;;;;;27.10;12.20;;;;;;;2.22;76.26;98893.39;25080;1316;3026779;-63
2022/01/07 01:30:49;;;;;;;21.30;10.80;;;;;;;2.16;76.90;98888.05;25105;1316;3058364;-63
2022/01/07 01:33:18;;;;;;;24.70;12.60;;;;;;;3.00;75.53;98887.36;25072;1316;3027229;-62
2022/01/07 01:35:47;;;;;;;31.90;14.50;;;;;;;3.43;73.24;98885.86;25088;1316;3052236;-62
2022/01/07 01:38:16;;;;;;;33.60;15.20;;;;;;;3.36;72.72;98886.30;25093;1316;3026741;-63
2022/01/07 01:40:45;;;;;;;33.40;18.00;;;;;;;3.22;72.76;98887.55;25121;1315;3054442;-61
2022/01/07 01:43:15;;;;;;;35.50;20.10;;;;;;;2.97;73.62;98888.88;25089;1316;3026453;-63
2022/01/07 01:45:44;;;;;;;44.00;22.90;;;;;;;2.74;74.19;98894.92;25102;1315;3026858;-61
2022/01/07 01:48:13;;;;;;;34.40;15.80;;;;;;;2.69;74.17;98889.25;25131;1314;3051482;-63
2022/01/07 01:50:42;;;;;;;37.10;19.00;;;;;;;2.55;74.59;98883.89;25101;1316;3026752;-62
2022/01/07 01:53:10;;;;;;;39.20;17.90;;;;;;;2.39;75.25;98885.52;25087;1316;3048853;-64
2022/01/07 01:55:40;;;;;;;24.30;12.20;;;;;;;2.43;75.42;98887.44;25084;1316;3026718;-61
2022/01/07 01:58:11;;;;;;;26.40;13.20;;;;;;;2.97;74.01;98881.95;25103;1316;3026958;-62
2022/01/07 02:00:41;;;;;;;29.60;12.90;;;;;;;3.58;72.55;98877.79;25119;1316;3051114;-63
2022/01/07 02:03:10;;;;;;;22.20;11.40;;;;;;;3.75;71.73;98885.78;25089;1315;3026835;-62
2022/01/07 02:05:39;;;;;;;22.10;12.20;;;;;;;3.63;71.45;98888.34;25099;1313;3070013;-66
2022/01/07 02:08:09;;;;;;;27.10;11.80;;;;;;;3.46;71.77;98891.95;25090;1313;3026304;-62
2022/01/07 02:10:37;;;;;;;24.60;13.00;;;;;;;3.23;72.38;98897.37;25116;1313;3050768;-63
2022/01/07 02:13:07;;;;;;;22.60;11.50;;;;;;;2.97;73.09;98897.89;25079;1313;3029237;-63
2022/01/07 02:15:37;;;;;;;29.00;16.20;;;;;;;2.61;74.32;98896.12;25117;1313;3055120;-63
2022/01/07 02:18:06;;;;;;;25.20;14.30;;;;;;;2.41;75.58;98902.89;25079;1313;3028619;-64
2022/01/07 02:20:35;;;;;;;22.90;11.30;;;;;;;2.42;75.60;98901.13;25107;1313;3026664;-62
2022/01/07 02:23:04;;;;;;;24.40;13.80;;;;;;;3.14;74.66;98905.35;25128;1312;3056675;-61
2022/01/07 02:25:35;;;;;;;23.00;10.70;;;;;;;3.43;73.42;98907.34;25101;1315;3026355;-63
2022/01/07 02:28:05;;;;;;;18.10;10.70;;;;;;;3.34;73.32;98913.55;25093;1313;3027456;-64
2022/01/07 02:30:34;;;;;;;21.80;10.50;;;;;;;3.28;73.01;98912.94;25054;1313;3054598;-61
2022/01/07 02:33:03;;;;;;;16.20;8.40;;;;;;;3.09;73.19;98918.02;25113;1316;3026754;-63
2022/01/07 02:35:33;;;;;;;15.00;9.00;;;;;;;2.77;74.23;98917.82;25103;1312;3052016;-62
2022/01/07 02:38:02;;;;;;;20.00;9.70;;;;;;;2.56;74.94;98916.88;25116;1313;3027452;-62
2022/01/07 02:40:31;;;;;;;15.80;8.90;;;;;;;2.41;75.51;98924.83;25098;1313;3026867;-64
2022/01/07 02:43:00;;;;;;;16.70;9.00;;;;;;;2.62;76.61;98931.70;25138;1313;3049056;-63
2022/01/07 02:45:29;;;;;;;16.40;7.90;;;;;;;3.04;74.49;98929.59;25107;1313;3026919;-63
2022/01/07 02:47:58;;;;;;;15.30;7.80;;;;;;;3.47;73.75;98938.16;25095;1312;3054770;-61
2022/01/07 02:50:29;;;;;;;10.90;6.50;;;;;;;3.07;74.07;98938.35;25112;1313;3029136;-61
2022/01/07 02:52:59;;;;;;;12.60;6.80;;;;;;;3.00;73.79;98941.20;25123;1312;3026637;-63
2022/01/07 02:55:28;;;;;;;11.70;6.70;;;;;;;2.65;74.89;98950.11;25124;1312;3026823;-62
2022/01/07 02:57:57;;;;;;;11.50;6.30;;;;;;;2.56;75.11;98954.04;25104;1312;3026501;-60
2022/01/07 03:00:26;;;;;;;10.40;5.10;;;;;;;2.34;76.55;98962.26;25091;1313;3052828;-62
2022/01/07 03:02:55;;;;;;;7.70;4.20;;;;;;;2.96;74.92;98960.19;25139;1312;3026896;-62
2022/01/07 03:05:24;;;;;;;9.00;5.10;;;;;;;3.36;73.31;98959.19;25087;1312;3027283;-65
2022/01/07 03:07:53;;;;;;;9.80;5.00;;;;;;;3.02;74.10;98963.43;25114;1313;3028531;-64
2022/01/07 03:10:27;;;;;;;6.80;4.70;;;;;;;2.91;74.14;98965.05;25094;1313;3053983;-64
2022/01/07 03:12:57;;;;;;;8.60;4.90;;;;;;;2.61;75.13;98970.48;25107;1313;3070458;-61
2022/01/07 03:15:27;;;;;;;9.00;5.10;;;;;;;2.60;74.80;98974.31;25098;1313;3025747;-64
2022/01/07 03:17:56;;;;;;;11.90;6.50;;;;;;;2.11;76.58;98984.98;25094;1312;3026889;-65
2022/01/07 03:20:25;;;;;;;5.70;3.00;;;;;;;1.90;78.01;98987.05;25103;1313;3027251;-63
2022/01/07 03:22:54;;;;;;;9.40;4.50;;;;;;;3.00;75.41;98987.73;25088;1313;3049391;-63
2022/01/07 03:25:23;;;;;;;12.70;4.80;;;;;;;3.18;73.95;98989.33;25138;1312;3029072;-61
2022/01/07 03:27:52;;;;;;;10.30;6.20;;;;;;;2.96;74.37;98985.46;25079;1319;3066725;-65
2022/01/07 03:30:21;;;;;;;8.90;4.60;;;;;;;2.69;75.08;98990.42;25125;1313;3026267;-63
2022/01/07 03:32:50;;;;;;;8.30;5.10;;;;;;;2.70;74.88;99000.23;25110;1313;3050905;-62
2022/01/07 03:35:19;;;;;;;9.60;5.30;;;;;;;2.43;75.80;99004.13;25092;1313;3026208;-60
2022/01/07 03:37:49;;;;;;;9.30;5.20;;;;;;;2.22;76.41;99005.53;25124;1312;3051957;-63
2022/01/07 03:40:19;;;;;;;7.50;5.00;;;;;;;1.98;77.84;99009.27;25123;1312;3029193;-62
2022/01/07 03:42:49;;;;;;;6.90;3.90;;;;;;;2.91;76.07;99012.10;25118;1312;3027524;-62
2022/01/07 03:45:18;;;;;;;9.20;5.00;;;;;;;3.24;73.57;99010.19;25091;1313;3026521;-64
2022/01/07 03:47:48;;;;;;;9.20;5.30;;;;;;;2.98;74.09;99013.76;25094;1312;3026755;-63
2022/01/07 03:50:18;;;;;;;7.20;4.40;;;;;;;2.62;75.17;99019.52;25122;1313;3028257;-64
2022/01/07 03:52:48;;;;;;;8.30;5.30;;;;;;;2.46;75.82;99019.26;25089;1313;3026265;-62
2022/01/07 03:55:23;;;;;;;8.20;5.40;;;;;;;2.15;76.40;99018.54;25119;1313;3026801;-64
2022/01/07 03:57:53;;;;;;;10.40;5.70;;;;;;;2.12;76.85;99013.11;25103;1312;3026666;-66
2022/01/07 04:00:34;;;;;;;7.50;4.80;;;;;;;1.93;77.88;99019.80;25126;1313;3028883;-64
2022/01/07 04:03:06;;;;;;;7.50;5.20;;;;;;;2.72;75.95;99020.23;25122;1313;3049711;-64
2022/01/07 04:05:35;;;;;;;9.90;4.20;;;;;;;2.75;75.35;99015.27;25074;1313;3028350;-63
2022/01/07 04:08:05;;;;;;;5.80;4.10;;;;;;;2.81;74.98;99016.63;25104;1313;3026274;-65
2022/01/07 04:10:34;;;;;;;8.70;4.70;;;;;;;2.44;75.78;99023.45;25124;1313;3049000;-64
2022/01/07 04:13:03;;;;;;;8.50;5.20;;;;;;;2.41;75.82;99034.09;25100;1312;3026939;-67
2022/01/07 04:15:32;;;;;;;9.30;5.40;;;;;;;1.98;77.02;99035.00;25105;1313;3058387;-65
2022/01/07 04:18:01;;;;;;;5.90;3.90;;;;;;;1.71;78.39;99036.73;25085;1313;3028925;-63
2022/01/07 04:20:33;;;;;;;12.10;5.00;;;;;;;2.40;77.18;99040.50;25086;1313;3055233;-62
2022/01/07 04:23:03;;;;;;;8.10;5.30;;;;;;;2.95;75.12;99042.23;25117;1313;3027372;-66
2022/01/07 04:25:32;;;;;;;5.50;3.70;;;;;;;2.65;75.05;99049.89;25108;1313;3028699;-63
2022/01/07 04:28:05;;;;;;;11.00;6.00;;;;;;;2.38;75.52;99050.25;25101;1313;3028211;-62
2022/01/07 04:30:36;;;;;;;6.40;3.90;;;;;;;2.09;76.69;99059.36;25117;1313;3050369;-64
2022/01/07 04:33:05;;;;;;;10.00;6.30;;;;;;;1.92;77.14;99069.03;25133;1313;3028137;-63
2022/01/07 04:35:35;;;;;;;9.90;6.10;;;;;;;1.70;77.90;99068.02;25097;1318;3027018;-61
2022/01/07 04:38:04;;;;;;;11.60;4.40;;;;;;;1.57;78.73;99071.48;25096;1312;3028269;-66
2022/01/07 04:40:34;;;;;;;6.80;4.30;;;;;;;2.40;77.19;99069.38;25123;1313;3029806;-63
2022/01/07 04:43:04;;;;;;;10.20;5.90;;;;;;;2.95;74.98;99067.66;25101;1313;3027299;-61
2022/01/07 04:45:34;;;;;;;10.00;5.80;;;;;;;2.79;74.52;99069.98;25087;1312;3026026;-63
2022/01/07 04:48:03;;;;;;;9.10;5.10;;;;;;;2.18;76.16;99073.91;25087;1312;3027295;-65
2022/01/07 04:50:34;;;;;;;6.80;4.80;;;;;;;2.15;76.05;99080.95;25094;1318;3028668;-61
2022/01/07 04:53:03;;;;;;;10.70;4.90;;;;;;;2.16;75.50;99086.58;25112;1312;3026784;-65
2022/01/07 04:55:37;;;;;;;13.40;6.40;;;;;;;1.74;77.13;99088.95;25124;1313;3055688;-64
2022/01/07 04:58:08;;;;;;;9.00;5.10;;;;;;;1.54;78.63;99091.95;25098;1313;3026535;-63
2022/01/07 05:00:37;;;;;;;9.60;5.20;;;;;;;2.00;77.91;99091.63;25130;1319;3026929;-65
2022/01/07 05:03:06;;;;;;;11.00;6.30;;;;;;;2.61;75.51;99091.02;25080;1313;3026177;-63
2022/01/07 05:05:36;;;;;;;10.50;6.00;;;;;;;2.52;75.12;99095.80;25110;1319;3026553;-61
2022/01/07 05:08:05;;;;;;;9.30;5.80;;;;;;;2.42;74.92;99103.04;25068;1318;3066313;-65
2022/01/07 05:10:36;;;;;;;11.80;6.10;;;;;;;2.09;75.76;99117.24;25126;1312;3026259;-64
2022/01/07 05:13:05;;;;;;;13.70;7.40;;;;;;;1.80;76.72;99127.63;25153;1317;3026951;-66
2022/01/07 05:15:35;;;;;;;10.60;6.70;;;;;;;1.48;77.97;99131.83;25124;1313;3026505;-63
2022/01/07 05:18:04;;;;;;;12.90;7.70;;;;;;;1.53;78.06;99131.87;25140;1313;3051656;-65
2022/01/07 05:20:33;;;;;;;11.50;7.70;;;;;;;1.42;78.60;99141.69;25080;1313;3026502;-64
2022/01/07 05:23:02;;;;;;;19.00;9.00;;;;;;;1.92;77.80;99135.90;25090;1313;3068172;-64
2022/01/07 05:25:34;;;;;;;14.80;7.30;;;;;;;2.38;75.60;99129.63;25119;1313;3026884;-62
2022/01/07 05:28:05;;;;;;;13.70;7.00;;;;;;;2.23;75.16;99135.46;25121;1313;3053411;-63
2022/01/07 05:30:35;;;;;;;11.50;7.70;;;;;;;1.95;75.88;99135.45;25071;1312;3026410;-62
2022/01/07 05:33:04;;;;;;;12.50;7.40;;;;;;;1.83;76.69;99141.34;25098;1315;3028892;-64
2022/01/07 05:35:33;;;;;;;13.40;7.70;;;;;;;1.64;76.72;99146.06;25086;1313;3053747;-64
2022/01/07 05:38:01;;;;;;;9.80;6.20;;;;;;;1.63;76.81;99152.30;25086;1313;3030046;-64
2022/01/07 05:40:30;;;;;;;12.80;7.70;;;;;;;1.73;75.87;99162.70;25082;1313;3054788;-62
2022/01/07 05:42:59;;;;;;;10.80;6.40;;;;;;;1.67;76.56;99167.90;25082;1313;3026790;-63
2022/01/07 05:45:28;;;;;;;10.30;6.40;;;;;;;2.10;76.27;99167.45;25104;1313;3049492;-64
2022/01/07 05:47:57;;;;;;;12.50;6.10;;;;;;;2.58;73.82;99178.27;25072;1313;3030561;-66
2022/01/07 05:50:26;;;;;;;10.90;7.50;;;;;;;2.55;73.36;99182.83;25124;1312;3058739;-64
2022/01/07 05:52:55;;;;;;;13.60;7.50;;;;;;;2.43;73.41;99181.33;25096;1317;3026570;-62
2022/01/07 05:55:24;;;;;;;11.50;8.20;;;;;;;2.33;73.08;99190.98;25167;1316;3051202;-63
2022/01/07 05:57:53;;;;;;;12.80;7.50;;;;;;;2.05;73.93;99196.31;25121;1313;3026821;-65
2022/01/07 06:00:22;;;;;;;13.70;8.70;;;;;;;1.89;74.07;99196.79;25081;1319;3053836;-63
2022/01/07 06:02:51;;;;;;;16.80;9.40;;;;;;;1.69;75.29;99199.27;25079;1313;3027329;-63
2022/01/07 06:05:20;;;;;;;18.40;10.10;;;;;;;1.48;75.73;99208.64;25119;1313;3047228;-65
2022/01/07 06:07:49;;;;;;;18.20;8.20;;;;;;;1.26;76.51;99209.94;25119;1313;3026263;-62
2022/01/07 06:10:18;;;;;;;13.20;7.80;;;;;;;2.05;75.33;99200.61;25083;1312;3026869;-62
2022/01/07 06:12:48;;;;;;;12.70;6.90;;;;;;;2.44;72.92;99203.27;25122;1313;3050879;-62
2022/01/07 06:15:17;;;;;;;14.10;7.80;;;;;;;2.78;71.27;99204.04;25090;1312;3026405;-62
2022/01/07 06:17:46;;;;;;;16.20;8.00;;;;;;;2.34;71.71;99209.27;25095;1312;3069043;-64
2022/01/07 06:20:15;;;;;;;16.30;8.10;;;;;;;2.40;71.89;99213.73;25115;1316;3026840;-64
2022/01/07 06:22:44;;;;;;;14.50;8.00;;;;;;;2.08;72.45;99228.01;25200;1313;3053563;-62
2022/01/07 06:25:13;;;;;;;13.40;7.10;;;;;;;2.02;72.91;99237.34;25144;1313;3026496;-64
2022/01/07 06:27:42;;;;;;;14.70;7.60;;;;;;;2.04;72.73;99235.91;25109;1312;3054634;-65
2022/01/07 06:30:11;;;;;;;15.10;8.10;;;;;;;1.74;73.78;99245.22;25137;1313;3027114;-67
2022/01/07 06:32:40;;;;;;;13.40;7.20;;;;;;;1.53;74.85;99242.02;25106;1313;3048147;-61
2022/01/07 06:35:10;;;;;;;14.00;6.40;;;;;;;1.78;74.47;99245.63;25114;1313;3026251;-64
2022/01/07 06:37:38;;;;;;;12.00;5.50;;;;;;;2.28;73.39;99240.73;25097;1313;3055141;-62
2022/01/07 06:40:08;;;;;;;9.70;5.60;;;;;;;2.79;71.33;99241.21;25100;1313;3026138;-63
2022/01/07 06:42:37;;;;;;;10.30;5.70;;;;;;;2.79;71.14;99243.64;25119;1312;3053318;-61
2022/01/07 06:45:07;;;;;;;12.80;6.70;;;;;;;2.67;71.04;99251.13;25101;1313;3026430;-61
2022/01/07 06:47:37;;;;;;;8.30;6.10;;;;;;;2.40;71.21;99262.47;25107;1313;3051370;-62
2022/01/07 06:50:07;;;;;;;9.60;5.90;;;;;;;2.02;72.65;99272.43;25115;1312;3026856;-62
2022/01/07 06:52:37;;;;;;;11.90;6.80;;;;;;;2.06;72.66;99277.65;25111;1313;3047885;-64
2022/01/07 06:55:06;;;;;;;8.00;6.00;;;;;;;2.06;72.74;99278.52;25109;1312;3026421;-63
2022/01/07 06:57:35;;;;;;;12.40;6.40;;;;;;;1.94;72.95;99287.34;25101;1313;3068450;-64
2022/01/07 07:00:05;;;;;;;9.80;5.80;;;;;;;1.91;73.55;99286.89;25114;1312;3027168;-62
2022/01/07 07:02:35;;;;;;;6.70;4.90;;;;;;;2.50;73.15;99288.28;25113;1313;3050615;-66
2022/01/07 07:05:04;;;;;;;7.90;5.70;;;;;;;3.17;70.93;99297.77;25080;1312;3027258;-66
2022/01/07 07:07:34;;;;;;;9.40;5.90;;;;;;;3.20;70.10;99294.21;25077;1312;3053357;-63
2022/01/07 07:10:03;;;;;;;8.90;5.60;;;;;;;2.76;71.02;99298.21;25106;1312;3026291;-63
2022/01/07 07:12:33;;;;;;;7.30;4.50;;;;;;;2.58;71.98;99302.73;25072;1316;3051445;-62
2022/01/07 07:15:02;;;;;;;10.70;6.80;;;;;;;2.64;71.43;99302.91;25090;1313;3026496;-66
2022/01/07 07:17:31;;;;;;;9.10;4.90;;;;;;;2.40;72.51;99305.70;25121;1313;3057948;-61
2022/01/07 07:20:02;;;;;;;9.40;5.80;;;;;;;2.17;73.14;99301.20;25090;1312;3026311;-63
2022/01/07 07:22:32;;;;;;;9.70;6.40;;;;;;;2.00;74.23;99297.69;25105;1312;3051525;-64
2022/01/07 07:25:01;;;;;;;11.20;6.80;;;;;;;1.82;75.07;99303.71;25104;1312;3026339;-65
2022/01/07 07:27:30;;;;;;;8.60;5.30;;;;;;;1.77;75.33;99309.73;25089;1312;3054353;-63
2022/01/07 07:29:59;;;;;;;8.70;6.10;;;;;;;2.15;74.48;99307.45;25088;1312;3026568;-63
2022/01/07 07:32:30;;;;;;;9.10;6.00;;;;;;;2.56;73.01;99309.36;25085;1316;3047246;-65
2022/01/07 07:36:26;;;;;;;9.40;5.20;;;;;;;2.50;72.89;99315.09;25089;1312;3028300;-66
2022/01/07 07:37:49;;;;;;;9.20;5.90;;;;;;;2.58;72.06;99306.04;25095;1312;3055717;-66
2022/01/07 07:40:18;;;;;;;10.80;6.20;;;;;;;2.34;73.04;99314.52;25091;1313;3026430;-65
2022/01/07 07:42:47;;;;;;;11.10;7.10;;;;;;;2.38;72.53;99315.45;25077;1312;3027083;-64
2022/01/07 07:45:20;;;;;;;11.60;7.00;;;;;;;2.12;73.57;99320.85;25056;1313;3050088;-64
2022/01/07 07:47:49;;;;;;;13.50;8.10;;;;;;;2.16;73.80;99334.05;25103;1316;3026297;-67
2022/01/07 07:50:18;;;;;;;14.20;7.50;;;;;;;2.03;74.71;99329.92;25124;1312;3051623;-62
2022/01/07 07:52:47;;;;;;;10.20;6.20;;;;;;;2.02;74.54;99336.86;25108;1313;3027074;-64
2022/01/07 07:55:16;;;;;;;9.80;4.90;;;;;;;2.41;74.44;99337.14;25097;1312;3048497;-67
2022/01/07 07:57:44;;;;;;;11.30;6.40;;;;;;;3.32;71.52;99339.88;25130;1313;3026630;-62
2022/01/07 08:00:14;;;;;;;10.90;7.10;;;;;;;3.48;69.85;99332.22;25066;1313;3070034;-64
2022/01/07 08:02:43;;;;;;;11.00;7.20;;;;;;;3.09;70.42;99331.61;25056;1316;3028166;-64
2022/01/07 08:05:12;;;;;;;10.40;6.40;;;;;;;3.03;70.42;99338.72;25098;1312;3026540;-66
2022/01/07 08:07:41;;;;;;;9.50;6.30;;;;;;;2.85;70.70;99336.01;25110;1316;3070765;-63
2022/01/07 08:10:10;;;;;;;10.40;6.00;;;;;;;2.66;71.19;99345.23;25131;1312;3029073;-63
2022/01/07 08:13:25;;;;;;;10.60;6.40;;;;;;;2.73;70.65;99347.95;25081;1316;3052310;-64
2022/01/07 08:15:58;;;;;;;8.30;5.50;;;;;;;2.52;71.21;99351.35;25084;1313;3068721;-63
2022/01/07 08:18:31;;;;;;;9.80;6.50;;;;;;;2.48;71.42;99353.36;25101;1316;3051681;-66
2022/01/07 08:21:04;;;;;;;9.00;5.80;;;;;;;2.42;71.54;99359.23;25094;1313;3027012;-64
2022/01/07 08:23:34;;;;;;;10.60;6.10;;;;;;;2.28;72.37;99360.66;25093;1316;3053563;-64
2022/01/07 08:26:04;;;;;;;7.60;5.00;;;;;;;2.40;72.48;99369.83;25135;1312;3028553;-65
2022/01/07 08:28:39;;;;;;;5.70;3.70;;;;;;;3.17;70.38;99361.99;25116;1315;3027665;-63
2022/01/07 08:36:28;;;;;;;9.30;5.30;;;;;;;3.43;67.77;99363.23;25080;1313;3071806;-65
2022/01/07 08:38:58;;;;;;;8.40;5.50;;;;;;;3.10;68.50;99362.71;25075;1315;3026771;-67
2022/01/07 08:41:29;;;;;;;7.70;6.00;;;;;;;3.05;68.64;99369.98;25110;1312;3026383;-63
2022/01/07 08:43:58;;;;;;;9.00;5.20;;;;;;;2.89;68.94;99373.92;25083;1315;3066624;-61
2022/01/07 08:46:27;;;;;;;9.40;4.90;;;;;;;2.80;68.14;99373.17;25079;1316;3028377;-62
2022/01/07 08:48:56;;;;;;;10.50;6.00;;;;;;;2.41;69.01;99382.96;25093;1312;3053107;-63
2022/01/07 08:51:26;;;;;;;9.90;6.10;;;;;;;2.42;69.38;99377.38;25105;1313;3027763;-66
2022/01/07 08:53:55;;;;;;;8.20;6.20;;;;;;;2.51;68.85;99376.45;25152;1312;3052392;-64
2022/01/07 08:56:24;;;;;;;9.00;6.00;;;;;;;2.33;68.77;99386.46;25101;1315;3027041;-65
2022/01/07 08:58:57;;;;;;;9.90;6.30;;;;;;;2.32;69.35;99382.35;25082;1313;3026117;-61
2022/01/07 09:01:28;;;;;;;12.70;6.70;;;;;;;2.43;68.99;99386.88;25091;1312;3054930;-64
2022/01/07 09:03:57;;;;;;;9.80;6.00;;;;;;;2.40;69.00;99396.29;25132;1316;3026822;-65
2022/01/07 09:06:26;;;;;;;13.40;7.30;;;;;;;2.60;68.19;99395.89;25092;1313;3028693;-64
2022/01/07 09:08:55;;;;;;;11.40;6.60;;;;;;;2.62;66.97;99409.50;25095;1312;3053481;-65
2022/01/07 09:11:24;;;;;;;11.00;6.90;;;;;;;2.51;66.97;99402.39;25092;1315;3026622;-66
2022/01/07 09:13:53;;;;;;;10.50;7.10;;;;;;;2.44;67.06;99422.45;25078;1313;3051683;-65
2022/01/07 09:16:23;;;;;;;13.20;7.30;;;;;;;2.43;67.16;99414.20;25108;1313;3026552;-64
2022/01/07 09:18:53;;;;;;;14.60;8.40;;;;;;;2.53;67.03;99412.54;25099;1312;3056591;-65
2022/01/07 09:21:22;;;;;;;11.80;8.00;;;;;;;2.54;66.99;99421.65;25097;1312;3027741;-64
2022/01/07 09:23:51;;;;;;;17.70;10.40;;;;;;;2.44;66.74;99433.17;25110;1313;3051086;-65
2022/01/07 09:26:21;;;;;;;24.10;11.90;;;;;;;2.46;66.66;99424.29;25147;1312;3030472;-63
2022/01/07 09:28:50;;;;;;;17.20;10.50;;;;;;;2.53;66.13;99436.73;25104;1313;3054385;-65
2022/01/07 09:31:20;;;;;;;17.00;10.30;;;;;;;2.27;66.52;99440.20;25098;1312;3029808;-66
2022/01/07 09:33:49;;;;;;;23.80;12.80;;;;;;;2.24;66.39;99433.04;25128;1313;3030073;-65
2022/01/07 09:36:18;;;;;;;17.40;9.70;;;;;;;2.11;66.00;99441.52;25115;1313;3026487;-64
2022/01/07 09:38:47;;;;;;;16.80;9.30;;;;;;;2.01;66.58;99439.52;25108;1315;3050472;-62
2022/01/07 09:41:15;;;;;;;23.30;9.20;;;;;;;1.83;67.25;99451.03;25078;1315;3026034;-67
2022/01/07 09:43:44;;;;;;;14.00;8.30;;;;;;;1.90;67.06;99441.18;25150;1312;3054709;-63
2022/01/07 09:46:14;;;;;;;20.20;10.00;;;;;;;1.81;67.53;99446.41;25116;1313;3030575;-65
2022/01/07 09:48:43;;;;;;;16.80;9.00;;;;;;;1.88;67.51;99446.41;25114;1313;3048530;-65
2022/01/07 09:51:13;;;;;;;21.10;8.90;;;;;;;1.78;67.46;99449.08;25115;1312;3026407;-65
2022/01/07 09:53:42;;;;;;;9.70;5.90;;;;;;;1.73;67.16;99456.29;25081;1313;3068347;-63
2022/01/07 09:56:11;;;;;;;11.70;5.90;;;;;;;1.71;66.48;99456.34;25085;1316;3026616;-64
2022/01/07 09:58:40;;;;;;;14.70;6.20;;;;;;;1.62;66.12;99457.77;25103;1312;3053903;-64
2022/01/07 10:01:09;;;;;;;11.40;4.60;;;;;;;1.68;65.74;99455.53;25064;1315;3026598;-64
2022/01/07 10:03:40;;;;;;;11.80;5.60;;;;;;;1.68;65.49;99460.73;25134;1312;3051341;-66
2022/01/07 10:06:20;;;;;;;11.10;6.20;;;;;;;1.54;66.06;99476.60;25099;1312;3026860;-62
2022/01/07 10:09:07;;;;;;;8.90;5.20;;;;;;;1.45;66.48;99469.38;25089;1313;3071403;-63
2022/01/07 10:11:37;;;;;;;6.90;4.50;;;;;;;1.24;66.75;99477.27;25115;1312;3051351;-64
2022/01/07 10:14:22;;;;;;;10.60;6.60;;;;;;;1.24;66.88;99479.52;25138;1313;3055505;-63
2022/01/07 10:16:55;;;;;;;16.90;9.00;;;;;;;1.25;67.14;99472.24;24962;1312;3026690;-66
2022/01/07 10:19:34;;;;;;;18.50;10.90;;;;;;;1.39;66.82;99469.70;25099;1313;3058484;-65
2022/01/07 10:22:11;;;;;;;24.00;12.00;;;;;;;1.39;66.78;99478.15;25086;1312;3052554;-65
2022/01/07 10:24:57;;;;;;;26.30;13.40;;;;;;;1.44;66.19;99471.46;25107;1313;3053508;-63
2022/01/07 10:27:33;;;;;;;20.80;11.80;;;;;;;1.56;66.34;99468.09;25098;1313;3051340;-64
2022/01/07 10:30:25;;;;;;;30.10;14.10;;;;;;;1.71;66.15;99468.59;25093;1312;3071777;-66
2022/01/07 10:32:55;;;;;;;23.20;12.30;;;;;;;1.90;65.14;99465.71;25107;1312;3051797;-60
2022/01/07 10:35:25;;;;;;;15.30;8.20;;;;;;;1.90;64.10;99474.00;25082;1315;3026400;-67
2022/01/07 10:38:00;;;;;;;14.90;8.50;;;;;;;1.97;62.90;99478.13;25081;1312;3053257;-65
2022/01/07 10:40:37;;;;;;;21.00;10.60;;;;;;;1.90;63.36;99478.14;25101;1315;3028319;-66
2022/01/07 10:43:08;;;;;;;13.60;6.60;;;;;;;1.98;63.13;99487.61;25079;1313;3048501;-65
2022/01/07 10:45:38;;;;;;;15.30;7.30;;;;;;;1.85;63.02;99484.47;25143;1313;3026768;-63
2022/01/07 10:48:07;;;;;;;13.50;8.60;;;;;;;1.81;62.88;99483.02;25157;1313;3026495;-66
2022/01/07 10:50:42;;;;;;;18.00;7.40;;;;;;;1.98;62.75;99473.80;25142;1315;3026767;-64
2022/01/07 10:53:16;;;;;;;12.80;7.10;;;;;;;2.10;62.41;99480.24;25126;1313;3049088;-63
2022/01/07 10:56:06;;;;;;;15.30;9.10;;;;;;;2.13;62.20;99483.79;25105;1312;3052746;-63
2022/01/07 10:58:45;;;;;;;21.00;8.50;;;;;;;2.01;62.08;99485.48;25119;1315;3054680;-63
2022/01/07 11:01:20;;;;;;;10.00;6.40;;;;;;;1.92;62.60;99505.72;25106;1315;3059064;-63
2022/01/07 11:03:50;;;;;;;12.90;7.50;;;;;;;1.77;63.02;99494.89;25099;1312;3050167;-63
2022/01/07 11:06:20;;;;;;;18.30;9.80;;;;;;;1.84;63.17;99489.35;25137;1313;3029564;-63
2022/01/07 11:08:51;;;;;;;19.30;9.90;;;;;;;1.94;62.94;99493.41;25097;1313;3026455;-61
2022/01/07 11:11:23;;;;;;;19.20;9.20;;;;;;;2.01;63.26;99491.17;25191;1314;3026684;-65
2022/01/07 11:13:53;;;;;;;15.60;10.00;;;;;;;2.05;63.34;99489.18;25107;1315;3027696;-62
2022/01/07 11:16:22;;;;;;;17.00;9.30;;;;;;;2.18;63.13;99493.68;25234;1316;3026360;-64
2022/01/07 11:18:51;;;;;;;15.20;7.70;;;;;;;2.14;63.23;99497.61;25119;1315;3068926;-64
2022/01/07 11:21:20;;;;;;;13.60;7.20;;;;;;;2.25;62.94;99501.13;25044;1315;3026412;-64
2022/01/07 11:23:49;;;;;;;6.90;3.90;;;;;;;2.18;62.94;99511.67;25484;1315;3053005;-63
2022/01/07 11:26:18;;;;;;;6.40;3.70;;;;;;;1.91;63.60;99515.77;25113;1316;3026363;-63
2022/01/07 11:28:58;;;;;;;5.90;3.30;;;;;;;1.98;63.43;99515.25;25516;1315;3055163;-64
2022/01/07 11:31:27;;;;;;;3.60;2.50;;;;;;;1.98;63.53;99513.52;25150;1316;3051544;-61
2022/01/07 11:34:18;;;;;;;2.70;2.10;;;;;;;2.13;62.50;99517.33;25091;1316;3026790;-65
2022/01/07 11:36:48;;;;;;;3.70;2.20;;;;;;;2.36;62.00;99516.39;25086;1315;3048351;-64
2022/01/07 11:39:19;;;;;;;2.70;2.00;;;;;;;2.48;61.89;99515.71;25098;1316;3026503;-65